createdAt,value
2023-03-07T00:00:50.416Z,38.45
2023-03-07T00:03:22.739Z,41.70
2023-03-07T00:06:02.856Z,36.70
2023-03-07T00:08:34.163Z,35.08
2023-03-07T00:11:12.828Z,38.58
2023-03-07T00:13:46.072Z,33.88
2023-03-07T00:16:18.457Z,29.38
2023-03-07T00:18:50.552Z,37.00
2023-03-07T00:21:28.747Z,30.70
2023-03-07T00:24:00.245Z,33.22
2023-03-07T00:26:35.974Z,33.00
2023-03-07T00:29:08.577Z,33.42
2023-03-07T00:31:40.254Z,27.80
2023-03-07T00:34:11.364Z,29.90
2023-03-07T00:36:44.769Z,31.33
2023-03-07T00:39:16.222Z,29.88
2023-03-07T00:41:49.712Z,35.20
2023-03-07T00:44:20.918Z,30.48
2023-03-07T00:49:23.728Z,31.83
2023-03-07T00:51:54.503Z,31.13
2023-03-07T00:54:25.895Z,34.25
2023-03-07T00:56:59.403Z,32.88
2023-03-07T00:59:30.632Z,31.83
2023-03-07T01:04:37.998Z,30.02
2023-03-07T01:07:11.231Z,29.35
2023-03-07T01:09:42.519Z,29.30
2023-03-07T01:14:48.974Z,31.10
2023-03-07T01:17:20.867Z,30.60
2023-03-07T01:19:52.264Z,28.83
2023-03-07T01:22:29.485Z,30.42
2023-03-07T01:25:01.002Z,33.45
2023-03-07T01:27:34.562Z,36.85
2023-03-07T01:30:07.460Z,36.72
2023-03-07T01:32:40.596Z,37.08
2023-03-07T01:35:12.835Z,34.58
2023-03-07T01:37:49.107Z,29.70
2023-03-07T01:40:22.669Z,32.30
2023-03-07T01:42:56.198Z,31.42
2023-03-07T01:45:58.039Z,33.83
2023-03-07T01:48:29.068Z,31.50
2023-03-07T01:51:00.485Z,34.45
2023-03-07T01:53:34.357Z,32.78
2023-03-07T01:56:05.640Z,34.60
2023-03-07T01:58:43.043Z,32.72
2023-03-07T02:01:19.575Z,35.38
2023-03-07T02:03:56.423Z,36.35
2023-03-07T02:06:31.349Z,37.28
2023-03-07T02:09:02.698Z,38.65
2023-03-07T02:11:39.561Z,39.47
2023-03-07T02:14:13.626Z,36.17
2023-03-07T02:16:44.966Z,36.58
2023-03-07T02:19:40.578Z,37.38
2023-03-07T02:22:15.062Z,38.60
2023-03-07T02:24:54.204Z,40.25
2023-03-07T02:27:33.426Z,39.78
2023-03-07T02:30:06.517Z,36.70
2023-03-07T02:32:37.849Z,36.83
2023-03-07T02:35:20.319Z,38.67
2023-03-07T02:38:00.349Z,39.70
2023-03-07T02:40:34.318Z,40.88
2023-03-07T02:43:09.837Z,40.20
2023-03-07T02:45:43.108Z,41.75
2023-03-07T02:48:14.269Z,39.08
2023-03-07T02:53:21.279Z,38.72
2023-03-07T02:55:52.270Z,42.30
2023-03-07T02:58:32.104Z,39.05
2023-03-07T03:01:03.500Z,39.38
2023-03-07T03:03:36.014Z,39.63
2023-03-07T03:06:09.151Z,40.03
2023-03-07T03:08:46.077Z,35.97
2023-03-07T03:11:16.842Z,38.28
2023-03-07T03:13:52.858Z,39.28
2023-03-07T03:16:23.666Z,36.33
2023-03-07T03:18:57.506Z,34.53
2023-03-07T03:21:29.400Z,34.63
2023-03-07T03:24:09.913Z,34.92
2023-03-07T03:26:41.963Z,32.25
2023-03-07T03:29:16.446Z,29.30
2023-03-07T03:31:48.323Z,29.42
2023-03-07T03:34:20.214Z,31.63
2023-03-07T03:36:51.237Z,29.08
2023-03-07T03:39:22.906Z,30.17
2023-03-07T03:41:58.218Z,29.23
2023-03-07T03:44:32.735Z,29.60
2023-03-07T03:47:04.576Z,27.95
2023-03-07T03:49:37.491Z,30.70
2023-03-07T03:52:09.950Z,30.27
2023-03-07T03:54:41.054Z,30.75
2023-03-07T03:59:46.620Z,30.15
2023-03-07T04:02:19.631Z,32.90
2023-03-07T04:04:50.936Z,33.38
2023-03-07T04:07:22.445Z,32.72
2023-03-07T04:09:54.538Z,31.35
2023-03-07T04:14:59.936Z,30.65
2023-03-07T04:17:30.971Z,31.55
2023-03-07T04:20:02.287Z,31.02
2023-03-07T04:22:33.832Z,31.17
2023-03-07T04:25:05.107Z,30.98
2023-03-07T04:27:36.545Z,31.73
2023-03-07T04:30:15.488Z,30.92
2023-03-07T04:32:48.262Z,31.50
2023-03-07T04:35:19.570Z,28.85
2023-03-07T04:37:50.820Z,29.65
2023-03-07T04:40:22.449Z,35.90
2023-03-07T04:42:56.318Z,45.22
2023-03-07T04:45:30.246Z,43.10
2023-03-07T04:48:01.722Z,38.42
2023-03-07T04:50:33.393Z,40.97
2023-03-07T04:53:07.713Z,42.20
2023-03-07T04:55:41.245Z,41.28
2023-03-07T04:58:15.909Z,38.30
2023-03-07T05:00:50.244Z,39.00
2023-03-07T05:03:21.540Z,39.15
2023-03-07T05:05:52.971Z,36.15
2023-03-07T05:08:27.410Z,31.75
2023-03-07T05:10:59.436Z,31.92
2023-03-07T05:13:32.864Z,32.90
2023-03-07T05:16:13.080Z,42.97
2023-03-07T05:18:45.457Z,50.33
2023-03-07T05:21:19.537Z,42.13
2023-03-07T05:23:50.764Z,38.22
2023-03-07T05:26:22.349Z,37.85
2023-03-07T05:28:56.672Z,35.97
2023-03-07T05:31:31.013Z,37.58
2023-03-07T05:34:03.765Z,39.47
2023-03-07T05:36:36.452Z,47.63
2023-03-07T05:39:14.187Z,42.17
2023-03-07T05:41:49.945Z,41.15
2023-03-07T05:44:29.023Z,41.92
2023-03-07T05:47:08.950Z,41.10
2023-03-07T05:49:42.280Z,38.50
2023-03-07T05:52:13.874Z,38.42
2023-03-07T05:57:22.772Z,39.33
2023-03-07T05:59:53.895Z,34.50
2023-03-07T06:02:29.373Z,37.33
2023-03-07T06:05:01.663Z,39.33
2023-03-07T06:07:32.796Z,40.67
2023-03-07T06:10:05.673Z,42.33
2023-03-07T06:12:36.808Z,47.00
2023-03-07T06:17:56.665Z,49.22
2023-03-07T06:20:28.892Z,44.67
2023-03-07T06:23:04.282Z,43.65
2023-03-07T06:25:36.430Z,42.08
2023-03-07T06:28:15.936Z,46.08
2023-03-07T06:30:51.587Z,46.28
2023-03-07T06:33:25.504Z,37.72
2023-03-07T06:35:56.441Z,34.03
2023-03-07T06:38:35.656Z,33.83
2023-03-07T06:41:07.105Z,33.38
2023-03-07T06:43:42.317Z,35.47
2023-03-07T06:46:13.406Z,37.00
2023-03-07T06:48:52.311Z,37.38
2023-03-07T06:51:29.278Z,31.35
2023-03-07T06:54:03.212Z,28.33
2023-03-07T06:56:35.630Z,27.92
2023-03-07T06:59:07.326Z,20.05
2023-03-07T07:01:39.167Z,19.73
2023-03-07T07:04:15.928Z,20.98
2023-03-07T07:06:46.875Z,24.27
2023-03-07T07:09:18.700Z,21.15
2023-03-07T07:11:49.450Z,19.83
2023-03-07T07:14:22.234Z,18.92
2023-03-07T07:16:54.129Z,20.95
2023-03-07T07:19:31.161Z,19.55
2023-03-07T07:22:12.086Z,19.38
2023-03-07T07:24:46.474Z,19.98
2023-03-07T07:27:19.077Z,20.67
2023-03-07T07:29:52.102Z,18.05
2023-03-07T07:32:23.670Z,19.17
2023-03-07T07:34:59.259Z,33.22
2023-03-07T07:37:32.084Z,24.42
2023-03-07T07:40:05.406Z,22.92
2023-03-07T07:42:39.362Z,21.58
2023-03-07T07:45:26.275Z,24.33
2023-03-07T07:47:57.794Z,19.88
2023-03-07T07:50:34.364Z,22.52
2023-03-07T07:53:05.273Z,25.20
2023-03-07T07:55:39.001Z,38.00
2023-03-07T08:00:43.430Z,21.20
2023-03-07T08:03:14.456Z,24.35
2023-03-07T08:05:54.048Z,22.80
2023-03-07T08:08:24.873Z,21.98
2023-03-07T08:11:01.582Z,22.13
2023-03-07T08:13:33.172Z,20.90
2023-03-07T08:16:12.493Z,27.75
2023-03-07T08:18:43.341Z,26.80
2023-03-07T08:21:19.832Z,27.63
2023-03-07T08:23:52.750Z,23.08
2023-03-07T08:26:24.998Z,25.67
2023-03-07T08:28:55.782Z,21.63
2023-03-07T08:31:30.313Z,25.92
2023-03-07T08:34:03.893Z,34.30
2023-03-07T08:36:43.067Z,30.95
2023-03-07T08:39:13.831Z,26.02
2023-03-07T08:41:59.676Z,28.70
2023-03-07T08:44:34.855Z,26.85
2023-03-07T08:47:11.611Z,29.20
2023-03-07T08:49:45.645Z,22.88
2023-03-07T08:52:19.299Z,24.52
2023-03-07T08:54:49.989Z,26.27
2023-03-07T08:57:21.161Z,34.35
2023-03-07T09:02:25.488Z,29.15
2023-03-07T09:04:57.169Z,26.13
2023-03-07T09:07:31.298Z,25.70
2023-03-07T09:10:04.493Z,24.25
2023-03-07T09:12:38.755Z,22.08
2023-03-07T09:15:11.975Z,23.73
2023-03-07T09:17:45.598Z,21.85
2023-03-07T09:20:19.306Z,21.48
2023-03-07T09:22:54.923Z,23.20
2023-03-07T09:25:27.195Z,24.17
2023-03-07T09:28:08.126Z,23.30
2023-03-07T09:30:39.792Z,25.05
2023-03-07T09:33:10.936Z,25.70
2023-03-07T09:35:42.387Z,27.17
2023-03-07T09:38:16.220Z,29.85
2023-03-07T09:40:50.157Z,27.42
2023-03-07T09:43:23.668Z,25.40
2023-03-07T09:46:23.556Z,27.63
2023-03-07T09:49:12.227Z,24.45
2023-03-07T09:51:45.365Z,23.55
2023-03-07T09:54:23.421Z,24.77
2023-03-07T09:56:57.891Z,23.45
2023-03-07T09:59:38.862Z,26.85
2023-03-07T10:02:19.325Z,23.38
2023-03-07T10:05:00.394Z,26.63
2023-03-07T10:07:31.585Z,24.23
2023-03-07T10:10:11.881Z,25.50
2023-03-07T10:13:07.818Z,23.13
2023-03-07T10:15:48.591Z,25.88
2023-03-07T10:18:45.805Z,28.42
2023-03-07T10:21:23.965Z,28.73
2023-03-07T10:24:11.916Z,24.70
2023-03-07T10:30:35.718Z,20.80
2023-03-07T10:33:29.623Z,16.83
2023-03-07T10:36:16.416Z,17.60
2023-03-07T10:39:36.801Z,18.63
2023-03-07T10:42:47.045Z,17.17
2023-03-07T10:48:51.141Z,19.98
2023-03-07T10:52:15.614Z,18.38
2023-03-07T10:54:55.688Z,18.58
2023-03-07T10:57:31.303Z,18.35
2023-03-07T11:00:43.211Z,17.90
2023-03-07T11:03:51.879Z,17.90
2023-03-07T11:06:40.415Z,19.95
2023-03-07T11:09:46.111Z,18.60
2023-03-07T11:12:25.140Z,18.77
2023-03-07T11:15:30.062Z,18.00
2023-03-07T11:18:05.498Z,20.08
2023-03-07T11:20:53.940Z,20.00
2023-03-07T11:23:32.055Z,20.48
2023-03-07T11:26:51.089Z,17.33
2023-03-07T11:29:47.291Z,17.70
2023-03-07T11:32:43.508Z,19.15
2023-03-07T11:36:30.281Z,17.55
2023-03-07T11:38:46.639Z,18.20
2023-03-07T11:41:38.551Z,18.77
2023-03-07T11:44:28.800Z,18.45
2023-03-07T11:47:38.056Z,18.08
2023-03-07T11:53:59.427Z,18.58
2023-03-07T11:56:40.398Z,19.17
2023-03-07T11:59:49.002Z,20.45
2023-03-07T12:02:46.476Z,18.48
2023-03-07T12:05:43.587Z,19.23
2023-03-07T12:08:38.080Z,23.58
2023-03-07T12:11:25.538Z,20.20
2023-03-07T12:14:09.343Z,23.83
2023-03-07T12:16:58.774Z,23.15
2023-03-07T12:19:56.707Z,22.98
2023-03-07T12:22:39.179Z,27.05
2023-03-07T12:25:29.128Z,22.83
2023-03-07T12:28:17.185Z,21.85
2023-03-07T12:31:00.778Z,26.00
2023-03-07T12:33:59.483Z,29.30
2023-03-07T12:36:42.321Z,50.67
2023-03-07T12:39:25.675Z,38.65
2023-03-07T12:42:06.560Z,33.33
2023-03-07T12:44:43.077Z,29.17
2023-03-07T12:47:25.490Z,40.58
2023-03-07T12:50:20.035Z,30.55
2023-03-07T12:53:01.435Z,26.10
2023-03-07T12:55:39.304Z,26.38
2023-03-07T12:58:21.614Z,25.60
2023-03-07T13:01:03.764Z,26.52
2023-03-07T13:03:48.287Z,21.48
2023-03-07T13:06:25.538Z,20.98
2023-03-07T13:09:06.194Z,20.83
2023-03-07T13:12:20.476Z,18.52
2023-03-07T13:14:55.619Z,17.02
2023-03-07T13:17:59.678Z,19.20
2023-03-07T13:20:48.993Z,18.35
2023-03-07T13:23:32.909Z,18.45
2023-03-07T13:28:58.342Z,24.30
2023-03-07T13:31:56.500Z,22.17
2023-03-07T13:34:51.964Z,23.70
2023-03-07T13:37:54.550Z,23.08
2023-03-07T13:40:29.169Z,23.23
2023-03-07T13:43:10.333Z,21.25
2023-03-07T13:46:01.008Z,21.05
2023-03-07T13:49:11.148Z,24.33
2023-03-07T13:52:25.747Z,23.42
2023-03-07T13:55:35.789Z,24.63
2023-03-07T13:58:25.961Z,24.23
2023-03-07T14:01:06.976Z,23.55
2023-03-07T14:03:46.282Z,21.67
2023-03-07T14:06:40.760Z,24.85
2023-03-07T14:09:17.888Z,24.42
2023-03-07T14:12:05.159Z,26.58
2023-03-07T14:15:06.331Z,27.42
2023-03-07T14:18:00.149Z,27.50
2023-03-07T14:20:50.244Z,27.33
2023-03-07T14:23:49.536Z,31.63
2023-03-07T14:26:24.714Z,32.03
2023-03-07T14:29:01.953Z,30.02
2023-03-07T14:31:47.004Z,34.13
2023-03-07T14:34:29.485Z,36.22
2023-03-07T14:37:10.744Z,31.25
2023-03-07T14:39:52.094Z,30.83
2023-03-07T14:42:30.943Z,31.23
2023-03-07T14:45:20.656Z,23.57
2023-03-07T14:48:24.929Z,35.08
2023-03-07T14:50:59.397Z,31.48
2023-03-07T14:53:40.791Z,31.10
2023-03-07T14:56:13.586Z,34.75
2023-03-07T14:58:54.592Z,32.72
2023-03-07T15:01:25.648Z,31.10
2023-03-07T15:04:08.681Z,33.22
2023-03-07T15:06:48.196Z,30.05
2023-03-07T15:09:26.201Z,32.53
2023-03-07T15:12:06.410Z,31.17
2023-03-07T15:14:48.244Z,32.97
2023-03-07T15:17:21.988Z,33.75
2023-03-07T15:20:02.262Z,32.80
2023-03-07T15:22:39.747Z,26.98
2023-03-07T15:25:26.113Z,34.80
2023-03-07T15:28:23.785Z,32.83
2023-03-07T15:30:58.001Z,32.17
2023-03-07T15:33:37.214Z,37.70
2023-03-07T15:42:32.009Z,42.50
2023-03-07T15:45:08.929Z,51.90
2023-03-07T15:47:42.155Z,41.58
2023-03-07T15:50:31.532Z,52.13
2023-03-07T15:53:11.041Z,38.50
2023-03-07T15:55:42.800Z,37.45
2023-03-07T15:58:23.087Z,41.80
2023-03-07T16:06:40.021Z,35.58
2023-03-07T16:13:09.601Z,35.67
2023-03-07T16:16:34.589Z,35.30
2023-03-07T16:19:39.599Z,32.45
2023-03-07T16:22:39.931Z,31.75
2023-03-07T16:25:40.681Z,41.55
2023-03-07T16:29:04.226Z,43.42
2023-03-07T16:32:08.636Z,35.47
2023-03-07T16:34:55.952Z,33.03
2023-03-07T16:37:41.050Z,40.13
2023-03-07T16:40:26.722Z,39.88
2023-03-07T16:43:03.612Z,41.63
2023-03-07T16:45:39.274Z,33.92
2023-03-07T16:53:47.645Z,32.05
2023-03-07T16:56:24.409Z,34.88
2023-03-07T16:58:57.755Z,41.72
2023-03-07T17:01:43.646Z,37.92
2023-03-07T17:04:15.164Z,39.10
2023-03-07T17:06:50.627Z,38.10
2023-03-07T17:09:28.515Z,39.40
2023-03-07T17:11:59.651Z,35.30
2023-03-07T17:14:36.088Z,43.25
2023-03-07T17:17:16.265Z,42.60
2023-03-07T17:19:54.394Z,43.35
2023-03-07T17:22:25.610Z,38.75
2023-03-07T17:27:28.683Z,33.20
2023-03-07T17:29:59.895Z,34.03
2023-03-07T17:32:34.106Z,33.22
2023-03-07T17:35:05.010Z,29.65
2023-03-07T17:37:36.204Z,31.27
2023-03-07T17:40:13.664Z,33.00
2023-03-07T17:42:45.599Z,33.10
2023-03-07T17:45:16.942Z,30.67
2023-03-07T17:47:54.170Z,31.02
2023-03-07T17:50:27.333Z,30.98
2023-03-07T17:52:59.063Z,30.85
2023-03-07T17:55:30.576Z,33.78
2023-03-07T17:58:02.366Z,32.00
2023-03-07T18:00:33.680Z,33.45
2023-03-07T18:03:08.229Z,31.45
2023-03-07T18:05:41.818Z,30.58
2023-03-07T18:08:15.726Z,31.58
2023-03-07T18:10:48.858Z,33.05
2023-03-07T18:13:24.503Z,32.10
2023-03-07T18:16:03.481Z,30.98
2023-03-07T18:18:40.219Z,31.60
2023-03-07T18:21:22.272Z,32.90
2023-03-07T18:23:55.019Z,30.85
2023-03-07T18:26:26.158Z,35.72
2023-03-07T18:28:58.325Z,30.73
2023-03-07T18:31:31.062Z,28.77
2023-03-07T18:37:20.800Z,30.05
2023-03-07T18:39:52.598Z,43.03
2023-03-07T18:42:23.744Z,31.50
2023-03-07T18:44:55.493Z,30.73
2023-03-07T18:47:27.191Z,27.27
2023-03-07T18:50:05.283Z,29.45
2023-03-07T18:52:36.127Z,27.67
2023-03-07T18:55:08.227Z,35.65
2023-03-07T18:57:38.975Z,26.23
2023-03-07T19:00:15.451Z,28.38
2023-03-07T19:02:46.210Z,29.90
2023-03-07T19:05:20.353Z,31.75
2023-03-07T19:16:44.381Z,29.10
2023-03-07T19:19:12.285Z,31.60
2023-03-07T19:28:13.228Z,35.22
2023-03-07T19:30:44.458Z,34.55
2023-03-07T19:33:17.372Z,31.27
2023-03-07T19:36:03.440Z,29.33
2023-03-07T19:38:39.862Z,26.70
2023-03-07T19:41:15.397Z,28.92
2023-03-07T19:44:12.316Z,31.70
2023-03-07T19:50:41.285Z,26.73
2023-03-07T19:57:16.398Z,21.15
2023-03-07T19:59:47.919Z,31.55
2023-03-07T20:02:29.708Z,31.77
2023-03-07T20:08:59.590Z,31.90
2023-03-07T20:11:34.267Z,31.25
2023-03-07T20:14:11.185Z,29.80
2023-03-07T20:16:42.421Z,28.42
2023-03-07T20:22:41.667Z,27.92
2023-03-07T20:25:13.447Z,28.90
2023-03-07T20:27:45.287Z,27.40
2023-03-07T20:30:21.009Z,29.23
2023-03-07T20:33:06.265Z,28.70
2023-03-07T20:39:07.828Z,29.55
2023-03-07T20:41:41.407Z,26.50
2023-03-07T20:44:17.693Z,29.60
2023-03-07T20:50:43.242Z,26.35
2023-03-07T20:53:15.164Z,29.35
2023-03-07T20:55:51.260Z,27.55
2023-03-07T20:58:22.419Z,28.20
2023-03-07T21:00:56.475Z,30.20
2023-03-07T21:03:36.861Z,30.27
2023-03-07T21:06:09.129Z,26.48
2023-03-07T21:08:47.611Z,27.73
2023-03-07T21:11:25.986Z,28.15
2023-03-07T21:13:57.768Z,27.20
2023-03-07T21:16:30.172Z,26.65
2023-03-07T21:19:07.519Z,28.38
2023-03-07T21:21:41.336Z,28.50
2023-03-07T21:24:15.940Z,27.90
2023-03-07T21:26:47.425Z,24.48
2023-03-07T21:29:18.450Z,29.45
2023-03-07T21:31:50.397Z,27.75
2023-03-07T21:34:28.969Z,26.92
2023-03-07T21:37:00.223Z,27.75
2023-03-07T21:39:31.444Z,28.88
2023-03-07T21:42:04.445Z,38.88
2023-03-07T21:44:36.842Z,30.02
2023-03-07T21:47:08.164Z,29.55
2023-03-07T21:52:12.337Z,26.55
2023-03-07T21:54:44.278Z,28.33
2023-03-07T21:57:18.478Z,25.80
2023-03-07T21:59:56.910Z,27.55
2023-03-07T22:02:28.379Z,24.83
2023-03-07T22:05:03.613Z,27.48
2023-03-07T22:07:37.345Z,29.73
2023-03-07T22:10:09.856Z,28.20
2023-03-07T22:12:41.456Z,26.77
2023-03-07T22:15:17.840Z,26.25
2023-03-07T22:17:48.905Z,28.25
2023-03-07T22:20:23.194Z,25.38
2023-03-07T22:22:56.984Z,26.05
2023-03-07T22:25:27.678Z,9.82
2023-03-07T22:27:59.158Z,7.85
2023-03-07T22:30:32.108Z,6.80
2023-03-07T22:33:07.276Z,7.15
2023-03-07T22:35:44.223Z,9.40
2023-03-07T22:38:16.841Z,6.95
2023-03-07T22:40:50.010Z,7.30
2023-03-07T22:43:21.803Z,6.18
2023-03-07T22:45:53.511Z,6.28
2023-03-07T22:48:27.035Z,4.28
2023-03-07T22:51:00.787Z,5.20
2023-03-07T22:53:32.638Z,4.25
2023-03-07T22:56:04.059Z,4.93
2023-03-07T22:58:37.147Z,4.07
2023-03-07T23:01:14.742Z,4.03
2023-03-07T23:03:47.739Z,4.10
2023-03-07T23:06:23.729Z,3.42
2023-03-07T23:08:56.669Z,2.78
2023-03-07T23:11:31.669Z,4.00
2023-03-07T23:14:05.101Z,3.40
2023-03-07T23:16:36.680Z,3.05
2023-03-07T23:19:08.481Z,3.60
2023-03-07T23:21:42.257Z,3.03
2023-03-07T23:24:14.461Z,2.30
2023-03-07T23:26:45.426Z,3.90
2023-03-07T23:29:17.600Z,3.50
2023-03-07T23:31:49.319Z,6.80
2023-03-07T23:34:21.934Z,6.18
2023-03-07T23:36:55.343Z,5.10
2023-03-07T23:39:26.782Z,4.07
2023-03-07T23:41:57.691Z,5.28
2023-03-07T23:44:32.288Z,5.35
2023-03-07T23:47:03.714Z,4.32
2023-03-07T23:49:38.450Z,2.75
2023-03-07T23:52:13.409Z,2.50
2023-03-07T23:54:49.571Z,3.10
2023-03-07T23:57:23.261Z,4.03
2023-03-07T23:59:54.321Z,4.95
